createdAt,value
2023-03-29T00:01:34.780Z,6.38
2023-03-29T00:04:04.004Z,5.15
2023-03-29T00:06:33.431Z,6.60
2023-03-29T00:09:05.864Z,5.28
2023-03-29T00:11:33.200Z,5.82
2023-03-29T00:14:00.307Z,4.70
2023-03-29T00:16:27.175Z,5.57
2023-03-29T00:18:54.128Z,5.45
2023-03-29T00:21:21.144Z,5.70
2023-03-29T00:23:47.995Z,5.63
2023-03-29T00:26:16.549Z,5.00
2023-03-29T00:28:43.479Z,5.82
2023-03-29T00:31:12.705Z,5.43
2023-03-29T00:33:40.189Z,5.60
2023-03-29T00:36:08.682Z,6.22
2023-03-29T00:38:36.117Z,5.78
2023-03-29T00:41:04.279Z,5.60
2023-03-29T00:43:51.710Z,5.72
2023-03-29T00:46:18.739Z,6.25
2023-03-29T00:48:46.663Z,5.82
2023-03-29T00:51:16.583Z,6.00
2023-03-29T00:53:48.656Z,6.78
2023-03-29T00:56:20.316Z,7.03
2023-03-29T00:58:54.859Z,4.97
2023-03-29T01:12:25.851Z,5.75
2023-03-29T01:14:59.070Z,6.18
2023-03-29T01:17:26.157Z,6.35
2023-03-29T01:19:59.786Z,7.30
2023-03-29T01:22:38.914Z,6.25
2023-03-29T01:28:37.481Z,6.75
2023-03-29T01:31:50.235Z,5.35
2023-03-29T01:34:40.404Z,5.22
2023-03-29T01:37:26.352Z,5.63
2023-03-29T01:40:05.356Z,5.47
2023-03-29T01:42:42.797Z,5.70
2023-03-29T01:45:29.057Z,4.90
2023-03-29T01:48:04.584Z,4.85
2023-03-29T01:50:47.806Z,4.88
2023-03-29T01:53:59.276Z,5.07
2023-03-29T01:56:31.203Z,4.68
2023-03-29T01:59:02.294Z,4.50
2023-03-29T02:01:34.656Z,4.32
2023-03-29T02:04:15.140Z,4.55
2023-03-29T02:06:43.407Z,4.05
2023-03-29T02:09:10.594Z,3.85
2023-03-29T02:11:42.012Z,4.03
2023-03-29T02:14:10.102Z,3.70
2023-03-29T02:16:41.326Z,3.95
2023-03-29T02:19:10.759Z,3.58
2023-03-29T02:21:48.315Z,4.60
2023-03-29T02:24:25.207Z,3.90
2023-03-29T02:26:52.708Z,4.03
2023-03-29T02:29:19.836Z,3.97
2023-03-29T02:32:16.960Z,4.32
2023-03-29T02:35:06.985Z,3.80
2023-03-29T02:37:36.610Z,3.55
2023-03-29T02:40:33.216Z,4.40
2023-03-29T02:43:02.979Z,4.90
2023-03-29T02:46:39.733Z,4.13
2023-03-29T02:49:11.738Z,4.82
2023-03-29T02:51:48.923Z,4.28
2023-03-29T02:54:33.824Z,4.32
2023-03-29T02:57:26.837Z,4.50
2023-03-29T03:00:02.202Z,4.30
2023-03-29T03:02:35.969Z,3.75
2023-03-29T03:05:21.756Z,4.38
2023-03-29T03:08:00.754Z,3.88
2023-03-29T03:10:32.508Z,4.47
2023-03-29T03:13:10.333Z,4.38
2023-03-29T03:15:48.652Z,5.10
2023-03-29T03:18:16.930Z,4.45
2023-03-29T03:20:55.349Z,3.83
2023-03-29T03:23:25.106Z,4.72
2023-03-29T03:25:52.814Z,4.28
2023-03-29T03:28:20.156Z,5.00
2023-03-29T03:30:47.133Z,5.88
2023-03-29T03:33:14.089Z,5.90
2023-03-29T03:35:41.581Z,5.13
2023-03-29T03:38:10.922Z,5.70
2023-03-29T03:40:38.464Z,5.72
2023-03-29T03:43:13.993Z,6.28
2023-03-29T03:45:43.050Z,5.43
2023-03-29T03:48:10.015Z,6.68
2023-03-29T03:50:38.328Z,6.15
2023-03-29T03:53:05.331Z,7.90
2023-03-29T03:55:34.572Z,6.65
2023-03-29T03:58:01.941Z,5.30
2023-03-29T04:00:29.756Z,5.35
2023-03-29T04:02:56.761Z,5.35
2023-03-29T04:05:23.866Z,4.63
2023-03-29T04:07:51.039Z,5.70
2023-03-29T04:10:18.276Z,5.78
2023-03-29T04:12:46.638Z,5.70
2023-03-29T04:15:13.701Z,6.35
2023-03-29T04:17:41.030Z,6.03
2023-03-29T04:20:12.778Z,5.93
2023-03-29T04:22:40.379Z,6.22
2023-03-29T04:25:08.681Z,5.68
2023-03-29T04:27:36.352Z,6.13
2023-03-29T04:30:05.794Z,5.40
2023-03-29T04:32:32.879Z,5.85
2023-03-29T04:34:59.916Z,5.50
2023-03-29T04:37:27.946Z,4.68
2023-03-29T04:39:54.859Z,4.80
2023-03-29T04:42:21.754Z,4.93
2023-03-29T04:44:49.032Z,5.43
2023-03-29T04:47:30.111Z,5.63
2023-03-29T04:49:57.271Z,5.70
2023-03-29T04:52:24.564Z,4.88
2023-03-29T04:54:51.634Z,4.70
2023-03-29T04:57:18.685Z,4.72
2023-03-29T04:59:45.662Z,5.07
2023-03-29T05:02:12.654Z,4.95
2023-03-29T05:05:09.243Z,4.93
2023-03-29T05:07:36.353Z,4.65
2023-03-29T05:10:03.468Z,5.07
2023-03-29T05:12:30.828Z,4.57
2023-03-29T05:14:58.644Z,3.95
2023-03-29T05:17:27.577Z,4.95
2023-03-29T05:19:55.043Z,5.60
2023-03-29T05:22:38.133Z,5.18
2023-03-29T05:25:06.061Z,4.18
2023-03-29T05:27:33.549Z,4.72
2023-03-29T05:30:01.282Z,5.05
2023-03-29T05:32:28.598Z,4.50
2023-03-29T05:34:55.586Z,5.20
2023-03-29T05:37:23.900Z,4.88
2023-03-29T05:39:50.741Z,4.30
2023-03-29T05:42:22.368Z,5.60
2023-03-29T05:44:49.388Z,4.97
2023-03-29T06:18:35.495Z,5.72
2023-03-29T06:21:03.127Z,5.85
2023-03-29T06:23:30.889Z,5.75
2023-03-29T06:25:58.184Z,6.90
2023-03-29T06:28:25.237Z,6.40
2023-03-29T06:30:54.165Z,6.55
2023-03-29T06:33:21.500Z,14.05
2023-03-29T06:35:50.348Z,6.70
2023-03-29T06:38:17.874Z,6.07
2023-03-29T06:40:45.473Z,6.70
2023-03-29T06:43:13.001Z,6.93
2023-03-29T06:45:40.672Z,5.70
2023-03-29T06:48:08.484Z,6.45
2023-03-29T06:50:36.160Z,6.22
2023-03-29T06:56:11.851Z,6.75
2023-03-29T06:58:39.318Z,6.45
2023-03-29T07:01:07.553Z,6.80
2023-03-29T07:03:36.190Z,6.72
2023-03-29T07:06:09.912Z,7.07
2023-03-29T07:08:43.944Z,5.78
2023-03-29T07:11:13.235Z,6.07
2023-03-29T07:13:42.721Z,9.20
2023-03-29T07:16:13.971Z,8.55
2023-03-29T07:18:43.013Z,6.70
2023-03-29T07:21:12.489Z,9.80
2023-03-29T07:23:41.170Z,7.18
2023-03-29T07:26:08.730Z,9.73
2023-03-29T07:28:37.658Z,17.27
2023-03-29T07:31:06.977Z,10.73
2023-03-29T07:33:34.753Z,6.75
2023-03-29T07:36:02.494Z,8.25
2023-03-29T07:38:29.984Z,6.25
2023-03-29T07:40:58.714Z,7.15
2023-03-29T07:43:25.920Z,6.65
2023-03-29T07:45:53.219Z,5.68
2023-03-29T07:48:20.395Z,6.30
2023-03-29T07:50:56.906Z,6.32
2023-03-29T07:53:24.427Z,5.57
2023-03-29T07:55:52.706Z,6.60
2023-03-29T07:58:21.958Z,6.47
2023-03-29T08:00:49.399Z,6.47
2023-03-29T08:03:17.272Z,6.97
2023-03-29T08:05:45.219Z,6.50
2023-03-29T08:08:12.484Z,7.00
2023-03-29T08:10:39.760Z,6.78
2023-03-29T08:13:09.275Z,6.18
2023-03-29T08:15:40.086Z,6.57
2023-03-29T08:18:08.032Z,6.68
2023-03-29T08:20:35.374Z,6.57
2023-03-29T08:23:02.600Z,5.57
2023-03-29T08:25:30.476Z,6.38
2023-03-29T08:27:57.963Z,6.57
2023-03-29T08:30:25.948Z,6.10
2023-03-29T08:32:55.508Z,5.97
2023-03-29T08:35:23.162Z,6.32
2023-03-29T08:37:50.383Z,6.75
2023-03-29T08:40:24.229Z,7.05
2023-03-29T08:45:39.441Z,7.57
2023-03-29T08:48:22.214Z,6.28
2023-03-29T08:50:54.714Z,7.43
2023-03-29T08:53:27.647Z,7.05
2023-03-29T08:55:57.525Z,7.33
2023-03-29T08:58:29.290Z,7.60
2023-03-29T09:00:58.578Z,7.05
2023-03-29T09:03:32.476Z,7.75
2023-03-29T09:06:03.648Z,7.60
2023-03-29T09:08:31.197Z,6.63
2023-03-29T09:11:16.778Z,7.97
2023-03-29T09:13:55.096Z,8.18
2023-03-29T09:16:30.358Z,8.40
2023-03-29T09:19:16.534Z,7.45
2023-03-29T09:21:49.775Z,7.50
2023-03-29T09:24:32.586Z,8.23
2023-03-29T09:27:04.135Z,8.25
2023-03-29T09:29:55.226Z,8.10
2023-03-29T09:32:32.029Z,6.75
2023-03-29T09:35:14.306Z,7.35
2023-03-29T09:37:41.913Z,7.50
2023-03-29T09:40:15.878Z,6.28
2023-03-29T09:42:44.987Z,7.03
2023-03-29T09:45:12.184Z,7.50
2023-03-29T09:47:43.819Z,5.90
2023-03-29T09:50:29.627Z,6.63
2023-03-29T09:52:58.567Z,6.45
2023-03-29T09:55:28.856Z,6.40
2023-03-29T09:57:59.183Z,6.13
2023-03-29T10:00:26.694Z,5.78
2023-03-29T10:02:57.168Z,6.75
2023-03-29T10:05:29.708Z,5.85
2023-03-29T10:08:01.333Z,6.38
2023-03-29T10:10:30.156Z,6.68
2023-03-29T10:13:01.147Z,6.43
2023-03-29T10:15:30.322Z,6.32
2023-03-29T10:17:59.935Z,7.45
2023-03-29T10:20:28.519Z,7.28
2023-03-29T10:22:57.956Z,6.78
2023-03-29T10:25:28.959Z,7.82
2023-03-29T10:28:03.890Z,6.30
2023-03-29T10:30:35.101Z,7.05
2023-03-29T10:33:02.536Z,5.90
2023-03-29T10:35:35.095Z,6.93
2023-03-29T10:38:07.920Z,6.82
2023-03-29T10:40:41.515Z,8.93
2023-03-29T10:43:14.660Z,6.93
2023-03-29T10:45:42.524Z,6.30
2023-03-29T10:48:13.786Z,5.82
2023-03-29T10:50:43.035Z,6.80
2023-03-29T10:53:18.172Z,6.03
2023-03-29T10:55:55.507Z,6.53
2023-03-29T10:58:42.591Z,6.20
2023-03-29T11:01:22.402Z,4.63
2023-03-29T11:04:16.115Z,5.47
2023-03-29T11:06:54.788Z,5.05
2023-03-29T11:09:36.431Z,5.15
2023-03-29T11:12:16.103Z,5.07
2023-03-29T11:15:00.576Z,4.65
2023-03-29T11:20:12.652Z,5.67
2023-03-29T11:23:33.673Z,6.13
2023-03-29T11:26:11.876Z,5.18
2023-03-29T11:28:48.823Z,5.30
2023-03-29T11:31:24.828Z,3.60
2023-03-29T11:34:01.899Z,4.35
2023-03-29T11:36:39.101Z,4.35
2023-03-29T11:39:15.649Z,4.30
2023-03-29T11:41:46.726Z,3.78
2023-03-29T11:44:18.206Z,3.83
2023-03-29T11:46:52.925Z,3.83
2023-03-29T11:49:25.307Z,4.38
2023-03-29T11:51:57.069Z,4.20
2023-03-29T11:54:32.148Z,3.70
2023-03-29T11:57:05.851Z,3.92
2023-03-29T11:59:37.941Z,4.20
2023-03-29T12:02:14.850Z,6.13
2023-03-29T12:04:47.544Z,4.35
2023-03-29T12:07:17.964Z,4.43
2023-03-29T12:09:51.096Z,4.20
2023-03-29T12:12:23.429Z,4.07
2023-03-29T12:15:00.207Z,4.72
2023-03-29T12:17:36.854Z,4.93
2023-03-29T12:20:12.004Z,5.03
2023-03-29T12:22:40.193Z,4.68
2023-03-29T12:25:18.473Z,5.05
2023-03-29T12:27:58.413Z,6.00
2023-03-29T12:30:47.113Z,5.15
2023-03-29T12:33:34.319Z,4.57
2023-03-29T12:36:19.476Z,4.25
2023-03-29T12:38:48.261Z,3.72
2023-03-29T12:41:20.098Z,4.20
2023-03-29T12:43:48.323Z,4.10
2023-03-29T12:46:18.572Z,4.07
2023-03-29T12:48:47.858Z,3.25
2023-03-29T12:51:17.355Z,3.90
2023-03-29T12:53:47.446Z,3.60
2023-03-29T12:56:17.865Z,4.15
2023-03-29T12:58:55.617Z,3.63
2023-03-29T13:01:27.596Z,3.50
2023-03-29T13:04:17.622Z,3.75
2023-03-29T13:07:06.123Z,4.65
2023-03-29T13:09:46.965Z,3.80
2023-03-29T13:12:24.348Z,3.50
2023-03-29T13:14:54.467Z,4.43
2023-03-29T13:17:42.886Z,3.33
2023-03-29T13:20:28.755Z,3.60
2023-03-29T13:23:09.674Z,4.25
2023-03-29T13:25:52.550Z,3.92
2023-03-29T13:28:30.449Z,3.67
2023-03-29T13:31:01.882Z,3.92
2023-03-29T13:33:57.444Z,3.65
2023-03-29T13:36:40.510Z,3.35
2023-03-29T13:39:15.504Z,3.70
2023-03-29T13:41:51.521Z,3.17
2023-03-29T13:44:29.963Z,3.95
2023-03-29T13:47:12.682Z,4.25
2023-03-29T13:49:43.312Z,4.63
2023-03-29T13:52:18.973Z,4.57
2023-03-29T13:54:54.063Z,4.13
2023-03-29T13:57:25.233Z,5.10
2023-03-29T13:59:59.567Z,5.30
2023-03-29T14:02:37.117Z,5.22
2023-03-29T14:05:07.745Z,5.47
2023-03-29T14:07:39.456Z,5.45
2023-03-29T14:10:07.993Z,5.80
2023-03-29T14:12:41.195Z,5.30
2023-03-29T14:15:23.915Z,5.05
2023-03-29T14:18:00.329Z,5.88
2023-03-29T14:20:30.385Z,5.07
2023-03-29T14:22:57.642Z,5.93
2023-03-29T14:25:25.626Z,6.55
2023-03-29T14:27:52.817Z,5.82
2023-03-29T14:30:25.916Z,6.68
2023-03-29T14:32:53.189Z,5.95
2023-03-29T14:35:27.336Z,6.82
2023-03-29T14:37:54.604Z,6.78
2023-03-29T14:40:22.060Z,7.57
2023-03-29T15:11:19.702Z,7.95
2023-03-29T15:13:47.902Z,8.20
2023-03-29T15:16:17.047Z,8.18
2023-03-29T15:18:45.520Z,8.13
2023-03-29T15:21:15.082Z,8.93
2023-03-29T15:23:48.197Z,9.07
2023-03-29T15:26:22.380Z,8.13
2023-03-29T15:28:55.611Z,8.18
2023-03-29T15:31:26.798Z,8.63
2023-03-29T15:34:04.358Z,8.77
2023-03-29T15:36:33.064Z,8.73
2023-03-29T15:39:01.579Z,8.40
2023-03-29T15:41:30.212Z,8.30
2023-03-29T15:43:57.708Z,9.00
2023-03-29T15:46:24.749Z,8.63
2023-03-29T15:48:51.727Z,9.50
2023-03-29T15:51:18.862Z,9.40
2023-03-29T15:53:46.247Z,9.65
2023-03-29T15:56:18.237Z,9.15
2023-03-29T15:58:47.585Z,9.32
2023-03-29T16:01:34.457Z,8.98
2023-03-29T16:04:02.193Z,9.93
2023-03-29T16:06:29.204Z,9.60
2023-03-29T16:08:57.481Z,9.10
2023-03-29T16:11:24.896Z,9.93
2023-03-29T16:13:53.531Z,9.23
2023-03-29T16:16:21.969Z,9.23
2023-03-29T16:18:49.252Z,9.98
2023-03-29T16:21:19.575Z,9.07
2023-03-29T16:23:48.288Z,10.30
2023-03-29T16:26:17.121Z,9.75
2023-03-29T16:28:44.347Z,9.68
2023-03-29T16:31:14.035Z,9.15
2023-03-29T16:33:41.712Z,10.07
2023-03-29T16:36:09.923Z,9.15
2023-03-29T16:38:37.258Z,9.40
2023-03-29T16:41:07.854Z,9.43
2023-03-29T16:43:38.608Z,9.55
2023-03-29T16:46:07.536Z,9.13
2023-03-29T16:48:37.172Z,9.98
2023-03-29T16:51:05.640Z,9.70
2023-03-29T16:53:32.737Z,10.50
2023-03-29T16:56:00.105Z,10.25
2023-03-29T16:58:30.191Z,9.57
2023-03-29T17:00:57.780Z,10.93
2023-03-29T17:03:24.961Z,9.20
2023-03-29T17:05:54.596Z,10.43
2023-03-29T17:08:22.183Z,7.97
2023-03-29T17:10:53.390Z,8.77
2023-03-29T17:13:24.039Z,8.82
2023-03-29T17:15:52.988Z,8.57
2023-03-29T17:18:20.414Z,7.88
2023-03-29T17:20:48.135Z,8.80
2023-03-29T17:23:16.669Z,8.82
2023-03-29T17:25:44.970Z,8.50
2023-03-29T17:28:12.093Z,8.75
2023-03-29T17:30:39.936Z,9.18
2023-03-29T17:33:08.191Z,9.25
2023-03-29T17:35:35.954Z,9.75
2023-03-29T17:38:06.358Z,9.93
2023-03-29T17:41:49.986Z,8.63
2023-03-29T17:45:03.215Z,8.75
2023-03-29T18:34:16.140Z,8.32
2023-03-29T18:37:09.745Z,7.65
2023-03-29T18:39:36.960Z,7.60
2023-03-29T18:42:05.643Z,7.07
2023-03-29T18:44:33.528Z,7.50
2023-03-29T18:47:01.189Z,7.43
2023-03-29T18:49:30.078Z,6.97
2023-03-29T18:51:57.772Z,6.93
2023-03-29T18:54:24.970Z,6.53
2023-03-29T18:56:54.358Z,6.40
2023-03-29T18:59:22.414Z,6.70
2023-03-29T19:01:50.221Z,6.53
2023-03-29T19:04:19.911Z,6.35
2023-03-29T19:06:49.432Z,5.55
2023-03-29T19:09:17.348Z,6.65
2023-03-29T19:11:48.055Z,6.25
2023-03-29T19:14:23.502Z,6.53
2023-03-29T19:16:52.337Z,6.43
2023-03-29T19:19:19.893Z,7.63
2023-03-29T19:21:49.714Z,6.53
2023-03-29T19:24:16.988Z,6.93
2023-03-29T19:26:48.064Z,7.07
2023-03-29T19:29:15.258Z,7.50
2023-03-29T19:31:43.818Z,6.63
2023-03-29T19:34:11.823Z,6.93
2023-03-29T19:36:39.720Z,7.18
2023-03-29T19:39:08.357Z,7.05
2023-03-29T19:41:35.510Z,8.00
2023-03-29T19:44:05.379Z,6.82
2023-03-29T19:46:36.242Z,6.10
2023-03-29T19:49:05.563Z,6.10
2023-03-29T19:51:32.845Z,6.57
2023-03-29T19:53:59.947Z,5.53
2023-03-29T19:56:28.708Z,5.30
2023-03-29T19:58:55.885Z,5.40
2023-03-29T20:01:27.243Z,5.85
2023-03-29T20:03:54.436Z,5.18
2023-03-29T20:06:21.674Z,5.50
2023-03-29T20:08:48.844Z,5.63
2023-03-29T20:11:16.771Z,5.22
2023-03-29T20:13:46.016Z,5.32
2023-03-29T20:16:16.348Z,5.30
2023-03-29T20:18:46.724Z,4.80
2023-03-29T20:21:16.849Z,5.03
2023-03-29T20:23:44.543Z,4.90
2023-03-29T20:26:11.763Z,4.68
2023-03-29T20:28:39.077Z,4.03
2023-03-29T20:31:10.879Z,3.95
2023-03-29T20:33:38.311Z,4.10
2023-03-29T20:36:06.648Z,4.68
2023-03-29T20:38:33.981Z,5.05
2023-03-29T20:41:01.435Z,3.78
2023-03-29T20:43:29.886Z,4.45
2023-03-29T20:45:57.137Z,4.82
2023-03-29T20:48:31.434Z,4.20
2023-03-29T20:50:58.516Z,4.07
2023-03-29T20:53:30.142Z,4.07
2023-03-29T20:55:57.249Z,4.00
2023-03-29T20:58:27.340Z,4.25
2023-03-29T21:00:54.298Z,4.40
2023-03-29T21:03:21.503Z,4.45
2023-03-29T21:05:54.097Z,4.65
2023-03-29T21:08:21.208Z,3.72
2023-03-29T21:10:48.300Z,4.60
2023-03-29T21:13:15.376Z,4.68
2023-03-29T21:15:43.830Z,4.93
2023-03-29T21:18:11.101Z,4.80
2023-03-29T21:20:38.446Z,4.65
2023-03-29T21:23:06.973Z,5.53
2023-03-29T21:25:34.325Z,4.88
2023-03-29T21:28:01.434Z,4.63
2023-03-29T21:30:30.102Z,5.00
2023-03-29T21:32:59.225Z,4.55
2023-03-29T21:35:26.521Z,5.32
2023-03-29T21:37:53.495Z,4.75
2023-03-29T21:40:22.150Z,5.10
2023-03-29T21:42:49.617Z,4.88
2023-03-29T21:45:17.127Z,5.10
2023-03-29T21:47:44.526Z,5.30
2023-03-29T21:50:12.017Z,4.15
2023-03-29T21:52:39.389Z,4.68
2023-03-29T21:55:07.407Z,4.63
2023-03-29T21:57:38.401Z,4.70
2023-03-29T22:00:11.382Z,5.45
2023-03-29T22:02:39.088Z,4.82
2023-03-29T22:05:07.964Z,4.68
2023-03-29T22:07:38.801Z,4.60
2023-03-29T22:10:07.183Z,4.50
2023-03-29T22:12:37.731Z,4.53
2023-03-29T22:15:06.410Z,4.13
2023-03-29T22:17:35.339Z,3.40
2023-03-29T22:20:02.960Z,3.17
2023-03-29T22:22:31.943Z,2.70
2023-03-29T22:25:00.124Z,2.78
2023-03-29T22:27:27.585Z,2.65
2023-03-29T22:29:56.211Z,2.92
2023-03-29T22:32:24.552Z,2.28
2023-03-29T22:34:52.398Z,2.22
2023-03-29T22:37:19.704Z,2.38
2023-03-29T22:39:47.040Z,3.00
2023-03-29T22:42:14.474Z,3.15
2023-03-29T22:44:42.760Z,2.70
2023-03-29T22:47:12.711Z,2.58
2023-03-29T22:49:40.180Z,2.90
2023-03-29T22:52:08.726Z,1.88
2023-03-29T22:54:36.062Z,2.55
2023-03-29T22:57:03.768Z,2.67
2023-03-29T22:59:31.619Z,2.90
2023-03-29T23:01:58.959Z,2.15
2023-03-29T23:04:27.909Z,2.35
2023-03-29T23:06:55.084Z,2.10
2023-03-29T23:09:29.418Z,2.17
2023-03-29T23:11:56.567Z,2.33
2023-03-29T23:14:23.821Z,2.47
2023-03-29T23:16:50.878Z,2.20
2023-03-29T23:19:17.858Z,2.03
2023-03-29T23:21:46.882Z,2.05
2023-03-29T23:24:18.865Z,1.92
2023-03-29T23:26:49.114Z,1.80
2023-03-29T23:29:16.179Z,2.03
2023-03-29T23:31:44.538Z,1.70
2023-03-29T23:34:13.574Z,1.30
2023-03-29T23:36:40.832Z,1.67
2023-03-29T23:39:10.024Z,1.48
2023-03-29T23:41:40.558Z,1.45
2023-03-29T23:44:08.008Z,1.42
2023-03-29T23:46:35.346Z,1.10
2023-03-29T23:49:02.592Z,1.55
2023-03-29T23:51:29.713Z,1.13
2023-03-29T23:53:57.290Z,1.50
2023-03-29T23:56:25.887Z,1.45
2023-03-29T23:58:53.045Z,1.75
